Gonzalo Riquelme

Chefscout - O'Higgins
23 Apr 2028
Sonntag
Verarbeitung

Persönlichkeit

Anpassungsfähigkeit (15) Ehrgeiz (18) Kontroverse (18) Loyalität (3) Druck (12) Professionalität (7) Fairness (18) Temperament (10)

Profil

Trainerstil Demokratisch
Lizenz Kontinentale A
Entschlossenheit 9
Menschenführung 4
Motivation 8
Disziplin 10
Arbeitszufriedenheit
100%
Ermüdung
0%
Rolle Chefscout
Gehalt 45.2K p/W
Vertrag 14.03.2030

Leistung

Verhalten Gut
Trainingseffektivität
40%
Spielerentwicklung
35%
Verletzungsprävention
60%
Taktische Umsetzung
35%

Letzte Ereignisse

Spieler begutachtet jetzt
Spieler begutachtet jetzt
Nahm an einer Scouting-Besprechung teil jetzt
Empfahl ein Transferziel jetzt
Nahm an einer Scouting-Besprechung teil jetzt
Spieler begutachtet 7T her
Spieler begutachtet 7T her
Spieler begutachtet 7T her

Aktuell beobachtet

293
Spieler Verein Status Fähigkeit Vertrauen Beobachtet Zuletzt beobachtet Letzte Stimme
Louie Barry Sheffield Wednesday Aktiv 120 / 128 40% 2 21.04.2028 -
Adrien Truffert Bournemouth Aktiv 168 / 158 40% 1 21.04.2028 -
Brais Méndez RC Lens Aktiv 161 / 141 40% 2 20.04.2028 -
Demarai Gray Birmingham Aktiv 128 / 132 40% 1 20.04.2028 -
Sebastiano Esposito Cagliari Aktiv 159 / 132 40% 1 17.04.2028 -
Oladapo Afolayan Blackburn Rovers Aktiv 118 / 129 40% 1 17.04.2028 -
Yasin Ayari Middlesbrough Aktiv 140 / 148 40% 1 17.04.2028 -
Tosin Adarabioyo West Bromwich Albion Aktiv 151 / 141 40% 1 17.04.2028 -
Mateu Morey Girona Aktiv 146 / 146 40% 4 15.04.2028 -
Carlos Alcaraz Stoke City Aktiv 145 / 139 40% 2 15.04.2028 -
Kasey McAteer Barnsley Aktiv 133 / 142 40% 1 13.04.2028 -
Carlos Vicente Birmingham Aktiv 156 / 150 40% 1 13.04.2028 -
Andrés Gómez Vasco da Gama Aktiv 150 / 142 40% 3 12.04.2028 -
Kevin Medina Mirandés Aktiv 135 / 118 40% 1 12.04.2028 -
Adrián Liso Zaragoza Aktiv 129 / 143 40% 2 11.04.2028 -
Jon Balda Real Sociedad Aktiv 141 / 133 40% 1 11.04.2028 -
Brandon Thomas-Asante Blackpool Aktiv 126 / 135 40% 3 10.04.2028 -
Tommy Conway Middlesbrough Aktiv 147 / 135 40% 1 10.04.2028 -
Jonathan David Juventus Aktiv 173 / 168 40% 2 09.04.2028 -
Ilyas Chaira Oviedo Aktiv 138 / 133 40% 2 09.04.2028 -
Jeremy Sarmiento Middlesbrough Aktiv 141 / 134 40% 3 08.04.2028 -
Henrik Meister Pisa Aktiv 146 / 140 40% 1 08.04.2028 -
Morgan Whittaker Bristol Rovers Aktiv 125 / 150 40% 3 07.04.2028 -
Amath N'Diaye Valladolid Aktiv 137 / 131 40% 4 06.04.2028 -
Abdoul Ouattara Port Vale Aktiv 138 / 128 40% 2 06.04.2028 -
Jacob Greaves Ipswich Town Aktiv 137 / 131 40% 3 05.04.2028 -
Dwight McNeil Crystal Palace Aktiv 147 / 147 40% 2 05.04.2028 -
Adam Kaied Zamalek Aktiv 119 / 130 40% 2 05.04.2028 -
César Tárrega Valencia Aktiv 143 / 140 40% 1 05.04.2028 -
Zito Luvumbo Cagliari Aktiv 143 / 125 40% 1 30.03.2028 -
Allan Reading Aktiv 154 / 132 40% 1 30.03.2028 -
Juan Bezerra Zamalek Aktiv 129 / 122 40% 2 29.03.2028 -
Sorriso Famalicao Aktiv 125 / 138 40% 1 26.03.2028 -
Iker Benito Casa Pia Aktiv 136 / 124 40% 5 24.03.2028 -
Anis Mehmeti Wycombe Wanderers Aktiv 145 / 145 40% 1 24.03.2028 -
Ben Gannon Doak Charlton Athletic Aktiv 146 / 154 40% 1 22.03.2028 -
Riley McGree Middlesbrough Aktiv 126 / 136 40% 1 21.03.2028 -
João Carvalho Estoril Praia Aktiv 126 / 130 40% 1 21.03.2028 -
Carlos Fernández Oviedo Aktiv 132 / 125 40% 1 20.03.2028 -
Paulo Henrique Vasco da Gama Aktiv 124 / 125 40% 2 19.03.2028 -
Álvaro Tejero Leganés Aktiv 122 / 118 40% 1 19.03.2028 -
Cristian Medina Botafogo Aktiv 123 / 132 40% 1 17.03.2028 -
Majid Jahanbakhsh Rah Ahan Aktiv 130 / 140 40% 1 16.03.2028 -
Bryan Gil Girona Aktiv 169 / 158 40% 1 16.03.2028 -
Gustavo Hamer Sheffield United Aktiv 142 / 131 40% 2 15.03.2028 -
William Osula Wrexham Aktiv 123 / 124 40% 1 15.03.2028 -
Luke McNally Bristol City Aktiv 146 / 125 40% 2 14.03.2028 -
André Wolverhampton Aktiv 138 / 145 40% 1 14.03.2028 -
Arnau Comas Deportivo La Coruña Aktiv 136 / 138 40% 1 13.03.2028 -
David Carmo Olympiacos Aktiv 148 / 151 40% 1 13.03.2028 -
Bernard Tekpetey Ludogorets Aktiv 118 / 117 40% 2 11.03.2028 -
Lautaro Guzmán MTK Budapest Aktiv 117 / 114 40% 2 10.03.2028 -
Dor Turgeman Rubin Aktiv 142 / 147 40% 1 10.03.2028 -
Nuno Moreira Vasco da Gama Aktiv 127 / 132 40% 1 09.03.2028 -
Pablo Solari Akhmat Grozny Aktiv 121 / 123 40% 1 06.03.2028 -
Samuel Edozie Southampton Aktiv 148 / 145 40% 1 05.03.2028 -
Silko Thomas Rotherham United Aktiv 113 / 133 40% 1 02.03.2028 -
Marcus Tavernier Bournemouth Aktiv 155 / 142 40% 1 02.03.2028 -
Bénie Traoré New York City Aktiv 137 / 126 40% 3 01.03.2028 -
Harry Wilson Leeds United Aktiv 135 / 157 40% 2 29.02.2028 -
Tyreece Campbell Charlton Athletic Aktiv 119 / 121 40% 1 29.02.2028 -
Jaidon Anthony Derby County Aktiv 131 / 129 40% 1 28.02.2028 -
Henry Mosquera Bragantino Aktiv 136 / 125 40% 1 26.02.2028 -
Luis Rodriguez Valur Aktiv 122 / 116 40% 2 24.02.2028 -
Francisco González Tijuana Aktiv 113 / 123 40% 1 24.02.2028 -
Marquinhos Spartak Moscow Aktiv 128 / 124 40% 1 21.02.2028 -
Pedro de la Vega Columbus Crew Aktiv 131 / 146 40% 1 20.02.2028 -
Marino Hinestroza Bahia Aktiv 121 / 130 40% 1 19.02.2028 -
Benjamín Rollheiser Santos Aktiv 132 / 125 40% 1 18.02.2028 -
Gustavo Neves Bragantino Aktiv 125 / 123 40% 1 18.02.2028 -
Sorba Thomas Stoke City Aktiv 122 / 145 40% 1 17.02.2028 -
Vitinho Botafogo Aktiv 136 / 127 40% 1 17.02.2028 -
Lucas Assadi AIK Aktiv 149 / 120 40% 1 12.02.2028 -
Nicolás Garayalde Liverpool Montevideo Aktiv 112 / 120 40% 2 10.02.2028 -
Quinn Sullivan Philadelphia Union Aktiv 131 / 126 40% 1 10.02.2028 -
Facundo Colidio Vasco da Gama Aktiv 142 / 134 40% 1 09.02.2028 -
Felipe Mora San Luis Aktiv 125 / 109 55% 1 20.12.2027 -
Maximiliano Gómez Nacional Aktiv 137 / 119 40% 3 13.12.2027 -
Diego Hernández Aguilas Doradas Aktiv 112 / 124 40% 2 30.11.2027 -
Jean Carlos Pestaña Junior Aktiv 127 / 111 40% 1 30.11.2027 -
Julián Palacios Envigado Aktiv 111 / 121 40% 1 12.11.2027 -
Pablo Cardona Cortulua Aktiv 129 / 115 40% 1 12.11.2027 -
Dylan Lozano Aguilas Doradas Aktiv 116 / 117 40% 2 11.11.2027 -
Alejandro Molina Tristán Suárez Aktiv 107 / 109 40% 1 11.11.2027 -
Geindry Cuervo Envigado Aktiv 122 / 115 40% 2 08.11.2027 -
Luis Jiménez Jaguares Aktiv 107 / 100 40% 2 06.11.2027 -
José Caldera Deportivo Cali Aktiv 112 / 115 40% 1 06.11.2027 -
Jan Carlos Ángulo Deportes Tolima Aktiv 122 / 127 40% 1 05.11.2027 -
Camilo Martinez Cortulua Aktiv 131 / 118 40% 1 03.11.2027 -
Ignacio Vázquez Platense Aktiv 126 / 120 40% 2 02.11.2027 -
Fernando Martínez Central Córdoba SdE Aktiv 122 / 122 40% 1 02.11.2027 -
Mateo Garavito Deportivo Pasto Aktiv 121 / 113 40% 1 01.11.2027 -
Yílmar Velásquez Santa Fe Aktiv 125 / 124 40% 1 31.10.2027 -
Emiliano Álvarez Progreso Aktiv 122 / 124 40% 1 31.10.2027 -
Bruno Leyes Godoy Cruz Aktiv 131 / 121 40% 1 30.10.2027 -
Cristian Graciano Deportivo Pasto Aktiv 105 / 115 40% 1 30.10.2027 -
Brian Nievas Chaco For Ever Aktiv 98 / 100 40% 1 21.10.2027 -
Yeferson Rodallega Envigado Aktiv 116 / 116 40% 1 21.10.2027 -
Fernando Rodríguez Almirante Brown Aktiv 123 / 114 40% 1 20.10.2027 -
Lorenzo Monti Temperley Aktiv 111 / 105 40% 1 18.10.2027 -
Jermein Peña Junior Aktiv 115 / 130 40% 1 05.10.2027 -
Alan García Wanderers Aktiv 114 / 105 40% 1 04.10.2027 -
Emanuel Coronel Rosario Central Aktiv 126 / 122 40% 1 04.10.2027 -
Steven Pabón Trujillanos Aktiv 96 / 113 40% 1 06.09.2027 -
Julián Cosi Madryn Aktiv 102 / 111 40% 1 06.09.2027 -
Ben Nelson Leicester City Aktiv 132 / 137 40% 1 08.08.2027 -
Joel Bagan Cardiff City Aktiv 113 / 109 40% 1 08.08.2027 -
Bali Mumba Huddersfield Town Aktiv 115 / 129 40% 2 06.08.2027 -
Hamza Choudhury Leicester City Aktiv 111 / 132 40% 4 06.08.2027 -
Alfie Jones Middlesbrough Aktiv 132 / 116 40% 2 05.08.2027 -
Japhet Tanganga Sheffield United Aktiv 155 / 147 40% 1 05.08.2027 -
Ramón Valladolid Aktiv 135 / 144 40% 1 02.08.2027 -
Lewis Gibson Preston Aktiv 118 / 112 40% 1 21.06.2027 -
Romelle Donovan Brentford Aktiv 129 / 137 40% 4 04.06.2027 -
Riley Owen Stevenage Aktiv 104 / 119 40% 1 04.06.2027 -
Lander Astiazarán Real Sociedad Aktiv 92 / 126 40% 2 01.06.2027 -
Mateus Mané Burnley Aktiv 152 / 138 40% 2 01.06.2027 -
Sampson Dweh Mallorca Verhandlung 133 / 134 66% 1 01.06.2027 Befürworten
Bazoumana Touré Newcastle United Aktiv 135 / 130 40% 3 30.05.2027 -
Max Bird Birmingham Aktiv 136 / 122 40% 4 30.05.2027 -
Michael Baidoo Plymouth Argyle Aktiv 133 / 140 40% 1 28.05.2027 -
Connor Ogilvie Grimsby Town Aktiv 94 / 126 40% 2 27.05.2027 -
Thierry Rendall Correia Venezia Aktiv 157 / 136 40% 2 26.05.2027 -
Daniel Awuni Aduana Stars Aktiv 73 / 108 40% 2 26.05.2027 -
Shea Charles Southampton Aktiv 126 / 148 40% 1 24.05.2027 -
Dara O'Shea Ipswich Town Aktiv 153 / 128 40% 6 23.05.2027 -
Max Johnston Derby County Aktiv 109 / 130 40% 4 22.05.2027 -
Alfie Devine Preston Aktiv 111 / 119 40% 1 21.05.2027 -
Ferland Mendy Real Madrid Aktiv 156 / 143 40% 5 20.05.2027 -
Oscar Schwartau Norwich City Aktiv 121 / 128 40% 3 20.05.2027 -
Victor Hernandez Santa Fe Aktiv 110 / 116 40% 1 20.05.2027 -
Mattia Rutigliano Pro Vercelli Aktiv 109 / 98 40% 2 19.05.2027 -
Caleb Yirenkyi Coventry City Aktiv 146 / 141 40% 3 18.05.2027 -
Brooke Norton-Cuffy Hull City Aktiv 122 / 144 40% 3 17.05.2027 -
Leo Castledine Middlesbrough Aktiv 123 / 142 40% 2 15.05.2027 -
Jonathan Varane Queens Park Rangers Aktiv 125 / 112 40% 2 15.05.2027 -
Mohamadou Kanté Crawley Town Aktiv 129 / 119 40% 2 15.05.2027 -
Valentino Acuña Newell's Old Boys Aktiv 116 / 112 40% 1 14.05.2027 -
Alfie Doughty Millwall Aktiv 110 / 121 40% 1 13.05.2027 -
Nobel Mendy Hull City Aktiv 147 / 151 40% 4 12.05.2027 -
Atsuki Ito Bolton Wanderers Aktiv 132 / 113 40% 1 12.05.2027 -
Borna Knezović Casarano Aktiv 118 / 108 40% 1 10.05.2027 -
Azor Matusiwa Ipswich Town Aktiv 132 / 143 40% 1 09.05.2027 -
Williams Wonah AS Police Aktiv 76 / 73 40% 1 07.05.2027 -
Jay Matete Milton Keynes Dons Aktiv 122 / 113 40% 1 05.05.2027 -
Edoardo Bove Watford Aktiv 128 / 123 40% 2 04.05.2027 -
Harry Clarke Preston Aktiv 144 / 128 40% 3 03.05.2027 -
Bosun Lawal Stoke City Aktiv 142 / 138 40% 2 02.05.2027 -
Aidan Morris Middlesbrough Aktiv 141 / 123 40% 1 02.05.2027 -
Toti Wolverhampton Aktiv 132 / 122 40% 2 01.05.2027 -
Lewis Bate Stockport County Aktiv 117 / 130 40% 4 30.04.2027 -
Joe Tomlinson Milton Keynes Dons Aktiv 96 / 89 40% 1 29.04.2027 -
Sondre Tronstad Blackburn Rovers Aktiv 106 / 116 40% 1 26.04.2027 -
Georgie Gent Barnsley Aktiv 97 / 100 40% 1 26.04.2027 -
Alexandro Maidana Eibar Aktiv 127 / 112 40% 2 24.04.2027 -
Ryan Oné Sheffield United Aktiv 116 / 129 40% 1 24.04.2027 -
Kristoffer Lund Birmingham Aktiv 128 / 128 40% 1 24.04.2027 -
Harvey White Stevenage Aktiv 120 / 113 40% 1 22.04.2027 -
Brodie Spencer Oxford United Aktiv 128 / 128 40% 1 19.04.2027 -
Florentino Luís Ipswich Town Aktiv 141 / 145 40% 5 18.04.2027 -
Germán Barbas Burgos Aktiv 106 / 104 40% 2 15.04.2027 -
Oliver Skipp Leicester City Aktiv 119 / 116 40% 1 15.04.2027 -
Lucas Da Cunha Como Aktiv 154 / 157 40% 3 13.04.2027 -
Martim Cunha Porto Aktiv 83 / 120 40% 1 12.04.2027 -
Ivan Giraldo Valencia Aktiv 109 / 122 40% 3 10.04.2027 -
Pablo García Gijón Aktiv 122 / 105 40% 3 07.04.2027 -
Matthew Targett Hull City Aktiv 125 / 119 40% 1 06.04.2027 -
Josh Tymon Swansea City Aktiv 113 / 127 40% 2 05.04.2027 -
Harouna Djibirin Angers SCO Aktiv 123 / 131 40% 1 05.04.2027 -
Lewis O'Brien Wrexham Aktiv 124 / 131 40% 1 31.03.2027 -
Jack Currie Oxford United Aktiv 141 / 122 40% 2 29.03.2027 -
Marc Bola Watford Aktiv 131 / 122 40% 2 25.03.2027 -
Kane Wilson Milton Keynes Dons Aktiv 117 / 100 40% 1 25.03.2027 -
Adam Randell Bristol City Aktiv 124 / 140 40% 1 24.03.2027 -
Nicolas Madsen Queens Park Rangers Aktiv 116 / 121 40% 1 24.03.2027 -
Ilja Ishkov Ural Aktiv 89 / 108 40% 1 23.03.2027 -
James Dornelly Peterborough United Aktiv 92 / 95 40% 2 21.03.2027 -
Jayden Luker Bromley Aktiv 93 / 109 40% 1 21.03.2027 -
Jordan Lotomba Bloemfontein Celtic Aktiv 119 / 110 40% 3 18.03.2027 -
Salvador Blopá Sporting CP Aktiv 114 / 122 40% 1 15.03.2027 -
Tom Pearce Chesterfield Aktiv 95 / 109 40% 1 15.03.2027 -
Ethan Galbraith Swansea City Aktiv 141 / 121 40% 2 12.03.2027 -
Will Hughes Bloemfontein Celtic Aktiv 153 / 126 40% 4 11.03.2027 -
Brooklyn Poggenpoel Maritzburg United Aktiv 109 / 117 40% 2 08.03.2027 -
Yhormar Hurtado Lechia Aktiv 128 / 112 40% 1 04.03.2027 -
Dennis Cirkin Queens Park Rangers Aktiv 123 / 134 40% 1 04.03.2027 -
Hidemasa Morita Hull City Aktiv 129 / 143 40% 2 28.02.2027 -
Tariq Lamptey Queens Park Rangers Aktiv 141 / 146 40% 1 28.02.2027 -
Axel Frugone Athletic Bilbao Aktiv 97 / 135 40% 1 27.02.2027 -
Terry Devlin Portsmouth Aktiv 102 / 116 40% 1 26.02.2027 -
Daniel Harvie Wycombe Wanderers Aktiv 126 / 114 40% 2 22.02.2027 -
Veljko Radosavljević Cukaricki Aktiv 98 / 92 40% 1 15.02.2027 -
Martin Gjorgievski Zbrojovka Brno Aktiv 122 / 102 40% 1 14.02.2027 -
Bongani Jali Free State Stars Aktiv 77 / 96 40% 1 11.02.2027 -
Pavel Pelevin Spartak Moscow Aktiv 66 / 93 40% 1 10.02.2027 -
Davide Calabria Panathinaikos Aktiv 156 / 119 40% 1 07.02.2027 -
Jay McGrath Doncaster Rovers Aktiv 115 / 94 40% 1 05.02.2027 -
Marcus McGuane Huddersfield Town Aktiv 115 / 105 40% 1 04.02.2027 -
Lloyd Jones Charlton Athletic Aktiv 128 / 117 40% 2 01.02.2027 -
Fawaaz Basadien Mamelodi Sundowns Aktiv 103 / 131 40% 1 01.02.2027 -
Lautaro Vargas Unión de Santa Fe Aktiv 129 / 125 40% 1 17.01.2027 -
José Bernal Ethnikos Achnas Aktiv 110 / 103 40% 2 15.01.2027 -
Cian Ashford Cardiff City Aktiv 109 / 137 40% 2 11.01.2027 -
Othmane Maamma Watford Aktiv 138 / 142 40% 1 11.01.2027 -
Maicon Levski Aktiv 114 / 112 40% 1 11.01.2027 -
Ignacio Rodríguez Racing Club Aktiv 128 / 131 40% 1 11.01.2027 -
Daniel Kyerewaa Reading Aktiv 94 / 117 40% 1 05.01.2027 -
Juan Bisanz Huracán Aktiv 121 / 124 40% 1 05.01.2027 -
Pelle Mattsson Norwich City Aktiv 137 / 138 40% 1 05.01.2027 -
Armstrong Oko-Flex Levski Aktiv 112 / 126 40% 3 01.01.2027 -
Petar Stanić Ludogorets Aktiv 121 / 142 40% 2 01.01.2027 -
Alex Vigo Independiente Rivadavia Aktiv 114 / 108 40% 1 01.01.2027 -
Job Ochieng Real Sociedad Aktiv 86 / 119 40% 1 29.12.2026 -
Andre Dozzell Bradford City Aktiv 102 / 111 40% 1 29.12.2026 -
Rodrigo Huescas FC Copenhagen Aktiv 126 / 140 40% 1 28.12.2026 -
Nathan Moriah-Welsh Mansfield Town Aktiv 105 / 99 40% 1 28.12.2026 -
Thomas Carrique Andorra Aktiv 113 / 105 40% 2 26.12.2026 -
Pedro Ramírez Deportivo Riestra Aktiv 108 / 125 40% 1 26.12.2026 -
Ekain Orobengoa Real Sociedad Aktiv 113 / 90 40% 1 24.12.2026 -
Matías Fernández Independiente Rivadavia Aktiv 123 / 112 40% 2 23.12.2026 -
Cristián Blanco Slavia Prague Aktiv 105 / 113 40% 1 14.12.2026 -
Rubens Dinamo Moscow Aktiv 111 / 139 40% 1 14.12.2026 -
Alex Luna Instituto Aktiv 118 / 125 40% 1 01.12.2026 -
Jack McGlynn Stoke City Aktiv 147 / 132 40% 1 01.12.2026 -
Nicolás Cordero Aldosivi Aktiv 123 / 107 40% 2 29.11.2026 -
Joaquín Gho Argentinos Juniors Aktiv 127 / 115 40% 1 27.11.2026 -
Antony Alonso Deportivo Riestra Aktiv 117 / 128 40% 1 27.11.2026 -
Tomás Fernández Aldosivi Aktiv 106 / 111 40% 1 26.11.2026 -
Joel Orlando Almagro Aktiv 122 / 123 40% 1 21.11.2026 -
Peter Valjent FK Senica Aktiv 106 / 135 40% 1 21.11.2026 -
Esteban da Silva Racing Aktiv 125 / 107 40% 1 20.11.2026 -
Justo Giani Umraniyespor Aktiv 139 / 109 40% 2 19.11.2026 Mehr Infos nötig
Leandro Suhr Boston River Aktiv 116 / 110 40% 1 16.11.2026 -
Joaquín Zeballos Wanderers Aktiv 99 / 114 40% 1 16.11.2026 -
Facundo Batista Penarol Aktiv 105 / 110 40% 1 15.11.2026 -
Gonzalo Carneiro Sparta Prague Aktiv 106 / 119 40% 3 13.11.2026 -
Richard Koné Queens Park Rangers Aktiv 115 / 124 40% 1 13.11.2026 -
Bruno Larregui Juventud Aktiv 107 / 116 40% 1 09.11.2026 -
Assad Al Hamlawi Universitatea Craiova Aktiv 107 / 102 40% 2 07.11.2026 -
Mariano Bracamonte Deportivo Riestra Aktiv 112 / 107 40% 4 07.11.2026 -
Juan Cruz de los Santos Nacional Verloren 128 / 129 40% 1 07.11.2026 -
Alexey Miranchuk Atlanta United FC Aktiv 155 / 148 40% 7 05.11.2026 Beobachten
Josh Sargent Toronto FC Aktiv 121 / 127 40% 1 02.11.2026 Mehr Infos nötig
Marcelo Allende Mamelodi Sundowns Aktiv 110 / 147 40% 1 29.10.2026 -
Matej Trusa DAC Dunajska Streda Aktiv 103 / 128 40% 1 26.10.2026 -
Talles Magno New York City Aktiv 138 / 138 40% 2 24.10.2026 -
Nicolás Sosa Racing Aktiv 124 / 106 40% 2 24.10.2026 -
Alexander Aravena Portland Timbers Aktiv 127 / 137 40% 1 23.10.2026 -
Juan Pablo Gallego Fehervar Aktiv 110 / 102 40% 1 23.10.2026 -
Myrto Uzuni Austin FC Aktiv 139 / 129 40% 2 21.10.2026 -
Eric Ramírez Ankaragucu Aktiv 96 / 95 40% 2 21.10.2026 -
Jackson Muleka Konyaspor Aktiv 127 / 137 40% 1 19.10.2026 -
Dominik Marczuk Real Salt Lake Aktiv 103 / 103 40% 1 18.10.2026 -
Max Fenger Helsingborg Aktiv 124 / 114 40% 1 15.10.2026 -
Marcelo Torres Gimnasia La Plata Aktiv 129 / 115 40% 4 12.10.2026 -
Callum Robinson Poltava Aktiv 128 / 106 40% 2 12.10.2026 -
Germán Berterame Inter Miami CF Aktiv 145 / 127 40% 3 11.10.2026 -
Cheikh Sabaly Vancouver Whitecaps Aktiv 111 / 127 40% 5 09.10.2026 -
Gaspar Duarte Rosario Central Aktiv 116 / 118 40% 1 05.10.2026 -
Juan Manuel Sanabria Real Salt Lake Aktiv 124 / 118 40% 1 05.10.2026 -
Alex Valera Universitario Aktiv 137 / 125 40% 1 01.10.2026 -
Federico Martínez MFK Ruzomberok Aktiv 127 / 110 40% 3 29.09.2026 -
Yorbe Vertessen Red Bull Salzburg Aktiv 127 / 122 40% 1 29.09.2026 -
Dániel Gazdag New England Revolution Aktiv 137 / 133 40% 1 27.09.2026 -
Indiana Vassilev Philadelphia Union Aktiv 113 / 113 40% 1 24.09.2026 -
Jordan Morris Seattle Sounders Aktiv 118 / 126 40% 2 21.09.2026 -
João Klauss LA Galaxy Aktiv 135 / 128 40% 1 21.09.2026 -
Victor Olatunji Real Salt Lake Aktiv 121 / 127 40% 1 13.09.2026 -
Rodrigo Mosqueira Stjarnan Aktiv 92 / 116 40% 1 09.09.2026 -
Jonathan Cañete Portuguesa Aktiv 124 / 114 40% 2 08.09.2026 -
David Ayala Inter Miami CF Aktiv 115 / 112 40% 1 08.09.2026 -
Alexis Melo All Boys Aktiv 114 / 125 40% 1 08.09.2026 -
Morgan Guilavogui Real Salt Lake Aktiv 130 / 128 40% 1 06.09.2026 -
Kelvin Yeboah Minnesota United FC Aktiv 126 / 131 40% 1 03.09.2026 -
Alejandro Melo FC Lahti Aktiv 100 / 132 40% 2 01.09.2026 -
Lewis Morgan Toronto FC Aktiv 133 / 136 40% 2 29.08.2026 -
Marcelo Fernández Libertad Aktiv 100 / 114 40% 1 26.08.2026 -
Luis Iberico Sporting Cristal Aktiv 115 / 103 40% 1 26.08.2026 -
Pep Biel Charlotte Football Club Aktiv 125 / 139 40% 1 24.08.2026 -
Walter González Sportivo Luqueno Aktiv 125 / 123 40% 1 24.08.2026 -
David Lemos Hammarby Aktiv 126 / 116 40% 1 22.08.2026 -
Brandon Vázquez Austin FC Aktiv 114 / 108 40% 2 18.08.2026 -
Juan Romero Olimpia Aktiv 113 / 127 40% 1 17.08.2026 -
Adalberto Peñaranda Deportivo Tachira Aktiv 101 / 111 40% 1 08.08.2026 -
Francisco Galván Deportivo Municipal Aktiv 103 / 98 40% 1 07.08.2026 -
Carlos Faya Deportivo La Guaira Aktiv 115 / 119 40% 1 06.08.2026 -
Nahuel Brunet Godoy Cruz Aktiv 99 / 120 40% 1 06.08.2026 -
Eryc Castillo Alianza Lima Aktiv 121 / 112 40% 1 06.08.2026 -
Iván Maggi Sportivo Luqueno Aktiv 105 / 107 40% 1 06.08.2026 -
Richard Celis Zamora Aktiv 106 / 113 40% 1 03.08.2026 -
Cristhian Paredes Cerro Porteno Aktiv 111 / 104 40% 1 03.08.2026 -
Matías Melluso Gimnasia La Plata Aktiv 121 / 115 40% 1 03.08.2026 -
Gastón Pereiro Juventud Aktiv 118 / 113 40% 1 01.08.2026 -